createdAt,value
2022-12-05T00:01:21.419Z,101871.16
2022-12-05T00:03:50.733Z,101863.91
2022-12-05T00:06:20.580Z,101871.09
2022-12-05T00:08:49.441Z,101863.91
2022-12-05T00:11:19.011Z,101856.84
2022-12-05T00:13:47.813Z,101863.13
2022-12-05T00:16:17.779Z,101861.19
2022-12-05T00:18:46.112Z,101858.63
2022-12-05T00:21:16.130Z,101852.41
2022-12-05T00:23:45.881Z,101843.47
2022-12-05T00:26:14.201Z,101844.22
2022-12-05T00:28:42.425Z,101843.44
2022-12-05T00:31:11.768Z,101842.56
2022-12-05T00:33:39.865Z,101837.19
2022-12-05T00:36:10.334Z,101832.56
2022-12-05T00:38:38.740Z,101822.84
2022-12-05T00:41:09.541Z,101827.34
2022-12-05T00:43:37.521Z,101831.75
2022-12-05T00:46:06.302Z,101833.56
2022-12-05T00:48:34.803Z,101830.81
2022-12-05T00:51:04.067Z,101839.88
2022-12-05T00:53:32.536Z,101839.88
2022-12-05T00:56:03.686Z,101835.41
2022-12-05T00:58:33.697Z,101840.81
2022-12-05T01:01:07.424Z,101838.06
2022-12-05T01:03:35.611Z,101834.38
2022-12-05T01:06:03.899Z,101844.28
2022-12-05T01:08:31.774Z,101841.25
2022-12-05T01:11:00.099Z,101842.56
2022-12-05T01:13:28.808Z,101840.69
2022-12-05T01:15:58.268Z,101839.66
2022-12-05T01:18:27.092Z,101844.28
2022-12-05T01:20:55.129Z,101838.00
2022-12-05T01:23:23.677Z,101840.59
2022-12-05T01:25:53.137Z,101834.44
2022-12-05T01:28:21.192Z,101841.44
2022-12-05T01:30:50.515Z,101838.78
2022-12-05T01:33:19.849Z,101836.09
2022-12-05T01:35:47.812Z,101837.78
2022-12-05T01:38:15.700Z,101836.91
2022-12-05T01:40:43.594Z,101834.38
2022-12-05T01:43:16.254Z,101829.88
2022-12-05T01:45:45.681Z,101827.94
2022-12-05T01:48:16.712Z,101823.47
2022-12-05T01:50:46.759Z,101822.56
2022-12-05T01:53:15.050Z,101827.06
2022-12-05T01:55:43.244Z,101826.19
2022-12-05T01:58:11.432Z,101825.34
2022-12-05T02:00:40.639Z,101820.69
2022-12-05T02:03:12.237Z,101825.25
2022-12-05T02:05:40.375Z,101816.28
2022-12-05T02:08:11.478Z,101819.97
2022-12-05T02:10:41.502Z,101820.69
2022-12-05T02:13:26.864Z,101810.84
2022-12-05T02:16:02.491Z,101809.91
2022-12-05T02:18:41.869Z,101805.28
2022-12-05T02:21:51.372Z,101797.31
2022-12-05T02:24:54.845Z,101801.94
2022-12-05T02:27:39.836Z,101803.56
2022-12-05T02:30:11.229Z,101802.81
2022-12-05T02:33:00.965Z,101799.13
2022-12-05T02:35:36.042Z,101804.34
2022-12-05T02:38:13.093Z,101802.75
2022-12-05T02:40:45.513Z,101801.78
2022-12-05T02:43:15.514Z,101803.56
2022-12-05T02:45:45.618Z,101796.97
2022-12-05T02:48:15.753Z,101800.75
2022-12-05T02:50:44.584Z,101784.56
2022-12-05T02:53:14.304Z,101787.38
2022-12-05T02:55:42.912Z,101789.19
2022-12-05T02:58:15.901Z,101781.09
2022-12-05T03:00:46.452Z,101787.25
2022-12-05T03:03:16.838Z,101788.19
2022-12-05T03:05:50.234Z,101783.69
2022-12-05T03:08:21.753Z,101788.19
2022-12-05T03:10:51.304Z,101780.13
2022-12-05T03:13:22.221Z,101778.19
2022-12-05T03:15:55.221Z,101775.53
2022-12-05T03:18:25.849Z,101776.19
2022-12-05T03:20:57.812Z,101774.59
2022-12-05T03:23:27.710Z,101776.03
2022-12-05T03:26:02.460Z,101776.19
2022-12-05T03:28:33.940Z,101770.81
2022-12-05T03:31:07.871Z,101780.53
2022-12-05T03:33:39.364Z,101770.69
2022-12-05T03:36:13.095Z,101772.50
2022-12-05T03:38:46.452Z,101767.06
2022-12-05T03:41:18.093Z,101770.59
2022-12-05T03:43:53.011Z,101767.00
2022-12-05T03:46:25.944Z,101768.75
2022-12-05T03:48:57.411Z,101772.34
2022-12-05T03:51:28.618Z,101776.91
2022-12-05T03:53:59.307Z,101771.41
2022-12-05T03:56:31.400Z,101771.63
2022-12-05T03:59:03.557Z,101772.09
2022-12-05T04:01:33.833Z,101770.41
2022-12-05T04:04:06.442Z,101775.78
2022-12-05T04:06:37.865Z,101774.69
2022-12-05T04:09:12.398Z,101770.47
2022-12-05T04:11:46.915Z,101771.41
2022-12-05T04:14:16.768Z,101770.19
2022-12-05T04:17:06.975Z,101770.53
2022-12-05T04:19:54.181Z,101779.53
2022-12-05T04:22:22.699Z,101778.66
2022-12-05T04:25:09.010Z,101775.56
2022-12-05T04:27:41.135Z,101779.38
2022-12-05T04:30:11.069Z,101788.22
2022-12-05T04:32:45.935Z,101781.84
2022-12-05T04:35:19.144Z,101778.50
2022-12-05T04:37:50.869Z,101783.81
2022-12-05T04:40:21.860Z,101782.84
2022-12-05T04:42:51.052Z,101779.81
2022-12-05T04:45:21.281Z,101781.00
2022-12-05T04:47:52.952Z,101771.22
2022-12-05T04:50:21.627Z,101771.94
2022-12-05T04:52:52.405Z,101772.88
2022-12-05T04:55:26.060Z,101777.09
2022-12-05T04:57:59.891Z,101777.97
2022-12-05T05:00:30.437Z,101776.66
2022-12-05T05:03:06.394Z,101774.53
2022-12-05T05:05:36.650Z,101779.13
2022-12-05T05:08:04.706Z,101777.31
2022-12-05T05:10:36.818Z,101776.94
2022-12-05T05:13:04.816Z,101770.09
2022-12-05T05:15:32.687Z,101774.63
2022-12-05T05:18:02.013Z,101779.03
2022-12-05T05:20:30.218Z,101764.75
2022-12-05T05:22:59.389Z,101771.00
2022-12-05T05:25:27.495Z,101762.88
2022-12-05T05:27:56.956Z,101765.34
2022-12-05T05:30:26.055Z,101762.59
2022-12-05T05:32:54.229Z,101766.41
2022-12-05T05:35:23.636Z,101755.19
2022-12-05T05:37:51.561Z,101752.88
2022-12-05T05:40:19.794Z,101765.47
2022-12-05T05:42:49.297Z,101750.19
2022-12-05T05:45:17.709Z,101746.47
2022-12-05T05:47:46.596Z,101754.63
2022-12-05T05:50:20.905Z,101761.88
2022-12-05T05:52:50.940Z,101758.88
2022-12-05T05:55:19.304Z,101760.78
2022-12-05T05:57:47.357Z,101764.19
2022-12-05T06:00:16.521Z,101763.69
2022-12-05T06:02:44.604Z,101763.69
2022-12-05T06:05:12.689Z,101764.47
2022-12-05T06:07:40.669Z,101767.75
2022-12-05T06:10:11.002Z,101771.59
2022-12-05T06:12:39.023Z,101773.41
2022-12-05T06:15:08.506Z,101764.38
2022-12-05T06:17:36.412Z,101757.06
2022-12-05T06:20:04.583Z,101758.09
2022-12-05T06:22:32.501Z,101757.06
2022-12-05T06:25:00.799Z,101772.59
2022-12-05T06:27:30.943Z,101768.69
2022-12-05T06:29:59.194Z,101770.72
2022-12-05T06:32:28.593Z,101778.81
2022-12-05T06:34:56.573Z,101782.31
2022-12-05T06:37:24.535Z,101783.25
2022-12-05T06:39:52.528Z,101780.47
2022-12-05T06:42:22.309Z,101789.53
2022-12-05T06:44:51.713Z,101779.34
2022-12-05T06:47:19.649Z,101785.66
2022-12-05T06:49:47.656Z,101789.63
2022-12-05T06:52:15.993Z,101788.75
2022-12-05T06:54:43.924Z,101782.47
2022-12-05T06:57:11.849Z,101789.53
2022-12-05T06:59:39.760Z,101791.44
2022-12-05T07:02:08.979Z,101791.56
2022-12-05T07:04:37.070Z,101795.22
2022-12-05T07:07:05.105Z,101779.03
2022-12-05T07:09:48.273Z,101784.41
2022-12-05T07:12:18.272Z,101789.75
2022-12-05T07:14:48.456Z,101783.59
2022-12-05T07:17:18.458Z,101782.72
2022-12-05T07:19:48.486Z,101785.41
2022-12-05T07:22:16.524Z,101785.34
2022-12-05T07:24:44.876Z,101782.72
2022-12-05T07:27:13.093Z,101780.03
2022-12-05T07:29:41.149Z,101770.09
2022-12-05T07:32:09.568Z,101773.09
2022-12-05T07:34:39.938Z,101774.81
2022-12-05T07:37:08.305Z,101769.44
2022-12-05T07:39:36.497Z,101779.25
2022-12-05T07:42:04.436Z,101781.97
2022-12-05T07:44:32.585Z,101774.75
2022-12-05T07:47:00.728Z,101775.56
2022-12-05T07:49:28.905Z,101775.69
2022-12-05T07:51:58.429Z,101774.53
2022-12-05T07:54:26.311Z,101778.38
2022-12-05T07:56:54.254Z,101776.56
2022-12-05T07:59:22.173Z,101779.47
2022-12-05T08:01:50.209Z,101779.38
2022-12-05T08:04:18.409Z,101781.84
2022-12-05T08:06:46.455Z,101785.69
2022-12-05T08:09:15.862Z,101782.84
2022-12-05T08:11:48.198Z,101780.53
2022-12-05T08:14:19.553Z,101782.28
2022-12-05T08:16:47.546Z,101792.72
2022-12-05T08:19:17.074Z,101787.56
2022-12-05T08:21:45.298Z,101789.53
2022-12-05T08:24:13.709Z,101794.72
2022-12-05T08:26:42.981Z,101794.56
2022-12-05T08:29:12.535Z,101796.56
2022-12-05T08:31:42.564Z,101797.28
2022-12-05T08:34:13.162Z,101794.41
2022-12-05T08:36:41.466Z,101786.56
2022-12-05T08:39:12.013Z,101795.69
2022-12-05T08:41:39.967Z,101798.28
2022-12-05T08:44:10.427Z,101803.44
2022-12-05T08:46:39.660Z,101793.00
2022-12-05T08:49:07.795Z,101802.84
2022-12-05T08:51:35.746Z,101806.56
2022-12-05T08:54:04.124Z,101803.88
2022-12-05T08:56:33.006Z,101806.63
2022-12-05T08:59:05.816Z,101812.72
2022-12-05T09:01:38.640Z,101814.59
2022-12-05T09:04:07.123Z,101810.28
2022-12-05T09:06:36.182Z,101806.81
2022-12-05T09:09:06.377Z,101814.16
2022-12-05T09:11:36.253Z,101816.06
2022-12-05T09:14:05.240Z,101818.00
2022-12-05T09:16:39.072Z,101819.78
2022-12-05T09:19:10.466Z,101816.41
2022-12-05T09:21:38.375Z,101823.13
2022-12-05T09:24:06.668Z,101827.38
2022-12-05T09:26:34.566Z,101826.59
2022-12-05T09:29:03.600Z,101820.03
2022-12-05T09:31:31.885Z,101820.97
2022-12-05T09:34:01.980Z,101822.44
2022-12-05T09:36:31.591Z,101824.38
2022-12-05T09:39:02.295Z,101825.25
2022-12-05T09:42:01.754Z,101819.97
2022-12-05T09:44:42.434Z,101818.22
2022-12-05T09:47:16.548Z,101820.66
2022-12-05T09:49:51.080Z,101825.06
2022-12-05T09:52:26.236Z,101817.22
2022-12-05T09:54:54.542Z,101823.66
2022-12-05T09:57:33.487Z,101822.00
2022-12-05T10:00:03.756Z,101823.59
2022-12-05T10:02:41.028Z,101825.19
2022-12-05T10:05:14.054Z,101823.25
2022-12-05T10:07:46.282Z,101819.44
2022-12-05T10:10:26.108Z,101828.72
2022-12-05T10:13:01.952Z,101821.66
2022-12-05T10:15:33.418Z,101821.44
2022-12-05T10:18:04.024Z,101818.75
2022-12-05T10:20:35.973Z,101816.06
2022-12-05T10:23:07.126Z,101820.78
2022-12-05T10:25:36.447Z,101815.88
2022-12-05T10:28:07.510Z,101819.97
2022-12-05T10:30:36.887Z,101815.78
2022-12-05T10:33:09.736Z,101817.81
2022-12-05T10:35:40.849Z,101811.66
2022-12-05T10:38:12.584Z,101809.44
2022-12-05T10:40:42.346Z,101802.31
2022-12-05T10:43:25.396Z,101806.69
2022-12-05T10:45:53.755Z,101806.97
2022-12-05T10:48:23.196Z,101810.56
2022-12-05T10:50:54.474Z,101809.09
2022-12-05T10:53:25.748Z,101808.22
2022-12-05T10:56:28.839Z,101814.13
2022-12-05T10:58:55.773Z,101804.28
2022-12-05T11:01:24.341Z,101796.91
2022-12-05T11:03:58.059Z,101805.63
2022-12-05T11:06:28.703Z,101797.84
2022-12-05T11:09:05.735Z,101798.84
2022-12-05T11:11:39.366Z,101796.91
2022-12-05T11:14:08.883Z,101794.22
2022-12-05T11:16:38.199Z,101794.28
2022-12-05T11:19:24.695Z,101791.00
2022-12-05T11:21:54.450Z,101793.09
2022-12-05T11:24:24.543Z,101787.66
2022-12-05T11:26:52.523Z,101790.13
2022-12-05T11:29:32.062Z,101791.13
2022-12-05T11:32:00.064Z,101784.72
2022-12-05T11:34:31.363Z,101785.41
2022-12-05T11:37:04.362Z,101780.09
2022-12-05T11:39:33.153Z,101779.22
2022-12-05T11:42:22.501Z,101780.72
2022-12-05T11:45:18.627Z,101783.56
2022-12-05T11:48:06.445Z,101777.06
2022-12-05T11:50:40.710Z,101774.59
2022-12-05T11:53:22.921Z,101766.09
2022-12-05T11:55:53.870Z,101767.31
2022-12-05T11:58:43.116Z,101765.75
2022-12-05T12:01:21.598Z,101759.81
2022-12-05T12:04:13.817Z,101760.16
2022-12-05T12:06:48.329Z,101759.53
2022-12-05T12:09:28.561Z,101766.16
2022-12-05T12:12:03.845Z,101760.75
2022-12-05T12:14:40.984Z,101765.09
2022-12-05T12:17:17.176Z,101761.00
2022-12-05T12:19:55.952Z,101767.44
2022-12-05T12:22:43.966Z,101766.44
2022-12-05T12:25:22.040Z,101758.59
2022-12-05T12:28:04.099Z,101760.53
2022-12-05T12:30:40.970Z,101761.28
2022-12-05T12:33:14.559Z,101760.53
2022-12-05T12:35:46.678Z,101759.66
2022-12-05T12:38:46.867Z,101759.75
2022-12-05T12:41:30.623Z,101758.84
2022-12-05T12:44:09.563Z,101763.41
2022-12-05T12:46:43.943Z,101749.34
2022-12-05T12:49:33.561Z,101754.84
2022-12-05T12:52:04.462Z,101749.34
2022-12-05T12:55:03.309Z,101753.97
2022-12-05T12:57:43.437Z,101747.72
2022-12-05T13:00:23.656Z,101755.16
2022-12-05T13:02:55.300Z,101740.69
2022-12-05T13:05:28.788Z,101752.28
2022-12-05T13:08:00.565Z,101748.69
2022-12-05T13:10:33.079Z,101750.28
2022-12-05T13:13:04.318Z,101740.97
2022-12-05T13:15:36.051Z,101737.22
2022-12-05T13:18:04.813Z,101735.19
2022-12-05T13:20:35.536Z,101737.84
2022-12-05T13:23:08.071Z,101733.19
2022-12-05T13:25:40.923Z,101731.13
2022-12-05T13:28:31.300Z,101738.06
2022-12-05T13:31:01.870Z,101732.03
2022-12-05T13:33:32.960Z,101731.47
2022-12-05T13:36:24.256Z,101732.38
2022-12-05T13:39:15.008Z,101732.53
2022-12-05T13:42:01.861Z,101738.75
2022-12-05T13:44:35.532Z,101736.22
2022-12-05T13:47:07.527Z,101737.00
2022-12-05T13:49:44.052Z,101734.63
2022-12-05T13:52:15.579Z,101735.78
2022-12-05T13:54:45.636Z,101734.50
2022-12-05T13:57:46.284Z,101744.25
2022-12-05T14:00:37.137Z,101746.25
2022-12-05T14:03:17.444Z,101749.91
2022-12-05T14:05:53.401Z,101744.13
2022-12-05T14:09:02.797Z,101750.41
2022-12-05T14:11:30.829Z,101742.06
2022-12-05T14:14:04.255Z,101747.72
2022-12-05T14:16:45.565Z,101748.59
2022-12-05T14:19:42.082Z,101745.03
2022-12-05T14:22:34.957Z,101745.59
2022-12-05T14:25:07.507Z,101745.03
2022-12-05T14:27:44.825Z,101742.66
2022-12-05T14:30:24.866Z,101743.72
2022-12-05T14:32:55.053Z,101748.47
2022-12-05T14:35:27.300Z,101738.00
2022-12-05T14:37:57.164Z,101735.88
2022-12-05T14:40:30.880Z,101735.75
2022-12-05T14:43:00.231Z,101737.16
2022-12-05T14:45:31.577Z,101735.41
2022-12-05T14:48:03.216Z,101742.50
2022-12-05T14:50:41.260Z,101740.38
2022-12-05T14:53:32.481Z,101734.88
2022-12-05T14:56:12.280Z,101740.78
2022-12-05T14:58:44.216Z,101747.38
2022-12-05T15:01:17.065Z,101746.81
2022-12-05T15:04:08.540Z,101745.72
2022-12-05T15:06:39.106Z,101752.16
2022-12-05T15:09:35.982Z,101745.94
2022-12-05T15:11:58.796Z,101748.97
2022-12-05T15:14:31.421Z,101755.41
2022-12-05T15:17:00.869Z,101750.34
2022-12-05T15:19:32.282Z,101752.09
2022-12-05T15:22:01.819Z,101751.19
2022-12-05T15:24:38.602Z,101750.50
2022-12-05T15:27:08.250Z,101752.38
2022-12-05T15:29:36.457Z,101756.44
2022-12-05T15:32:06.573Z,101758.44
2022-12-05T15:34:39.413Z,101760.63
2022-12-05T15:37:11.806Z,101756.88
2022-12-05T15:39:53.457Z,101752.75
2022-12-05T15:42:24.824Z,101763.22
2022-12-05T15:45:12.869Z,101758.88
2022-12-05T15:47:41.493Z,101756.00
2022-12-05T15:50:15.438Z,101747.03
2022-12-05T15:52:45.739Z,101749.50
2022-12-05T15:55:16.691Z,101748.31
2022-12-05T15:57:47.251Z,101754.06
2022-12-05T16:00:17.944Z,101757.47
2022-12-05T16:02:50.760Z,101756.63
2022-12-05T16:05:23.830Z,101761.09
2022-12-05T16:07:53.923Z,101757.56
2022-12-05T16:10:29.153Z,101759.44
2022-12-05T16:12:58.157Z,101759.63
2022-12-05T16:15:28.017Z,101757.19
2022-12-05T16:17:57.270Z,101753.84
2022-12-05T16:20:31.490Z,101753.88
2022-12-05T16:23:02.782Z,101751.88
2022-12-05T16:25:33.769Z,101758.00
2022-12-05T16:28:16.864Z,101751.84
2022-12-05T16:30:55.913Z,101751.16
2022-12-05T16:33:23.874Z,101756.88
2022-12-05T16:35:53.488Z,101751.91
2022-12-05T16:38:24.791Z,101753.91
2022-12-05T16:40:58.894Z,101762.00
2022-12-05T16:43:30.229Z,101757.72
2022-12-05T16:45:59.987Z,101763.97
2022-12-05T16:48:29.146Z,101763.78
2022-12-05T16:51:19.494Z,101760.31
2022-12-05T16:53:49.391Z,101758.59
2022-12-05T16:56:19.661Z,101758.41
2022-12-05T16:58:47.584Z,101765.66
2022-12-05T17:01:18.761Z,101763.09
2022-12-05T17:03:47.000Z,101762.97
2022-12-05T17:06:15.904Z,101762.88
2022-12-05T17:08:45.632Z,101760.94
2022-12-05T17:11:16.996Z,101762.94
2022-12-05T17:13:47.488Z,101757.88
2022-12-05T17:16:16.382Z,101766.78
2022-12-05T17:18:44.452Z,101762.41
2022-12-05T17:21:16.075Z,101765.91
2022-12-05T17:23:47.855Z,101769.44
2022-12-05T17:26:17.127Z,101766.72
2022-12-05T17:28:45.357Z,101764.38
2022-12-05T17:31:14.789Z,101768.06
2022-12-05T17:33:42.778Z,101767.31
2022-12-05T17:36:11.812Z,101763.84
2022-12-05T17:38:40.195Z,101772.94
2022-12-05T17:41:11.116Z,101775.91
2022-12-05T17:43:39.054Z,101772.28
2022-12-05T17:46:08.311Z,101769.50
2022-12-05T17:48:36.212Z,101771.25
2022-12-05T17:51:06.631Z,101768.47
2022-12-05T17:53:34.801Z,101776.63
2022-12-05T17:56:02.761Z,101771.25
2022-12-05T17:58:32.228Z,101773.84
2022-12-05T18:01:00.937Z,101777.16
2022-12-05T18:03:30.245Z,101778.19
2022-12-05T18:05:59.020Z,101779.28
2022-12-05T18:08:28.130Z,101781.19
2022-12-05T18:10:57.239Z,101782.81
2022-12-05T18:13:25.232Z,101791.66
2022-12-05T18:15:57.447Z,101789.84
2022-12-05T18:18:27.398Z,101796.13
2022-12-05T18:20:55.441Z,101791.69
2022-12-05T18:23:23.377Z,101786.03
2022-12-05T18:25:59.290Z,101783.66
2022-12-05T18:28:27.903Z,101789.78
2022-12-05T18:31:07.261Z,101781.88
2022-12-05T18:33:35.470Z,101788.09
2022-12-05T18:36:07.958Z,101785.19
2022-12-05T18:38:36.164Z,101784.50
2022-12-05T18:41:07.644Z,101789.88
2022-12-05T18:43:36.069Z,101790.53
2022-12-05T18:46:05.987Z,101787.97
2022-12-05T18:48:40.797Z,101789.78
2022-12-05T18:51:11.847Z,101784.44
2022-12-05T18:53:40.159Z,101790.53
2022-12-05T18:56:22.167Z,101795.78
2022-12-05T18:58:55.047Z,101797.28
2022-12-05T19:01:24.542Z,101794.91
2022-12-05T19:03:52.816Z,101793.44
2022-12-05T19:06:22.556Z,101790.47
2022-12-05T19:08:50.585Z,101792.34
2022-12-05T19:11:20.071Z,101793.25
2022-12-05T19:13:48.455Z,101793.91
2022-12-05T19:16:18.637Z,101792.25
2022-12-05T19:18:48.435Z,101789.59
2022-12-05T19:21:16.635Z,101792.25
2022-12-05T19:23:44.546Z,101793.38
2022-12-05T19:26:12.503Z,101795.00
2022-12-05T19:28:40.402Z,101799.38
2022-12-05T19:31:09.399Z,101794.03
2022-12-05T19:33:39.030Z,101787.03
2022-12-05T19:36:11.463Z,101785.06
2022-12-05T19:38:39.898Z,101788.47
2022-12-05T19:41:09.110Z,101791.03
2022-12-05T19:43:38.044Z,101799.25
2022-12-05T19:46:07.172Z,101793.84
2022-12-05T19:48:35.873Z,101792.91
2022-12-05T19:51:04.203Z,101787.44
2022-12-05T19:53:37.270Z,101782.31
2022-12-05T19:56:06.446Z,101790.25
2022-12-05T19:58:34.872Z,101789.59
2022-12-05T20:01:09.230Z,101790.28
2022-12-05T20:03:37.332Z,101786.88
2022-12-05T20:06:06.220Z,101793.94
2022-12-05T20:08:36.052Z,101787.69
2022-12-05T20:11:05.232Z,101790.53
2022-12-05T20:13:48.611Z,101792.13
2022-12-05T20:16:18.859Z,101789.28
2022-12-05T20:18:47.176Z,101787.78
2022-12-05T20:21:17.644Z,101785.50
2022-12-05T20:23:47.084Z,101786.88
2022-12-05T20:26:17.367Z,101786.47
2022-12-05T20:28:45.939Z,101789.84
2022-12-05T20:31:15.861Z,101777.91
2022-12-05T20:33:44.645Z,101777.59
2022-12-05T20:36:14.189Z,101784.50
2022-12-05T20:38:42.990Z,101775.06
2022-12-05T20:41:15.366Z,101774.22
2022-12-05T20:43:43.783Z,101771.09
2022-12-05T20:46:13.285Z,101773.38
2022-12-05T20:48:41.432Z,101770.53
2022-12-05T20:51:10.548Z,101767.91
2022-12-05T20:53:40.998Z,101763.66
2022-12-05T20:56:11.036Z,101767.22
2022-12-05T20:58:40.656Z,101772.22
2022-12-05T21:01:09.943Z,101763.41
2022-12-05T21:03:38.166Z,101753.66
2022-12-05T21:06:09.034Z,101767.78
2022-12-05T21:08:37.057Z,101776.75
2022-12-05T21:11:05.074Z,101768.47
2022-12-05T21:13:33.093Z,101768.09
2022-12-05T21:16:04.614Z,101754.34
2022-12-05T21:18:33.181Z,101752.78
2022-12-05T21:21:02.213Z,101748.34
2022-12-05T21:23:30.512Z,101760.19
2022-12-05T21:26:02.461Z,101755.72
2022-12-05T21:28:30.748Z,101757.63
2022-12-05T21:31:07.574Z,101763.97
2022-12-05T21:33:35.569Z,101753.34
2022-12-05T21:36:03.491Z,101756.16
2022-12-05T21:38:31.485Z,101749.16
2022-12-05T21:40:59.459Z,101749.31
2022-12-05T21:43:27.417Z,101752.81
2022-12-05T21:45:56.214Z,101752.59
2022-12-05T21:48:25.939Z,101751.56
2022-12-05T21:50:53.898Z,101748.00
2022-12-05T21:53:22.082Z,101748.81
2022-12-05T21:55:50.066Z,101750.69
2022-12-05T21:58:17.944Z,101743.44
2022-12-05T22:00:45.834Z,101747.06
2022-12-05T22:03:15.225Z,101747.94
2022-12-05T22:05:44.582Z,101748.88
2022-12-05T22:08:12.666Z,101751.41
2022-12-05T22:10:40.584Z,101746.94
2022-12-05T22:13:08.476Z,101736.22
2022-12-05T22:15:36.498Z,101738.03
2022-12-05T22:18:04.594Z,101735.31
2022-12-05T22:20:32.517Z,101729.00
2022-12-05T22:23:01.823Z,101736.09
2022-12-05T22:25:29.732Z,101737.91
2022-12-05T22:27:57.605Z,101734.22
2022-12-05T22:30:25.538Z,101738.97
2022-12-05T22:32:54.436Z,101731.88
2022-12-05T22:35:22.375Z,101727.41
2022-12-05T22:37:50.300Z,101736.47
2022-12-05T22:40:19.684Z,101733.56
2022-12-05T22:42:47.584Z,101729.06
2022-12-05T22:45:15.566Z,101733.56
2022-12-05T22:47:43.517Z,101730.84
2022-12-05T22:50:12.084Z,101723.66
2022-12-05T22:52:39.953Z,101720.28
2022-12-05T22:55:08.760Z,101718.44
2022-12-05T22:57:38.065Z,101725.31
2022-12-05T23:00:07.520Z,101718.13
2022-12-05T23:02:35.469Z,101713.78
2022-12-05T23:05:03.408Z,101718.06
2022-12-05T23:07:31.371Z,101712.81
2022-12-05T23:09:59.479Z,101717.28
2022-12-05T23:12:28.104Z,101708.28
2022-12-05T23:14:58.105Z,101711.03
2022-12-05T23:17:26.207Z,101718.44
2022-12-05T23:19:54.093Z,101708.75
2022-12-05T23:22:22.041Z,101703.19
2022-12-05T23:24:50.008Z,101701.53
2022-12-05T23:27:18.790Z,101705.91
2022-12-05T23:29:46.721Z,101700.53
2022-12-05T23:32:16.036Z,101705.88
2022-12-05T23:34:44.070Z,101700.63
2022-12-05T23:37:12.137Z,101701.41
2022-12-05T23:39:40.034Z,101690.84
2022-12-05T23:42:13.581Z,101696.16
2022-12-05T23:44:42.944Z,101694.28
2022-12-05T23:47:11.044Z,101684.50
2022-12-05T23:49:40.369Z,101690.75
2022-12-05T23:52:08.300Z,101687.06
2022-12-05T23:54:36.357Z,101687.03
2022-12-05T23:57:04.472Z,101686.06
2022-12-05T23:59:32.359Z,101691.38
